CheckWX is a tool to help pilots better visualize weather data.  It is not intended as a substitute for an official pre-flight weather briefing.

01:41:00 UTC

KCNO METAR
Chino Airport
Chino, California, USA
Current

48 mins ago

KCNO 230053Z 11006KT 10SM SCT040 BKN065 BKN100 13/11 A2978 RMK AO2 SLP082 T01330106
Observed
May-23 @ 00:53 UTC
Wind
  • 110° at 6 KTS
Visibility
10 SM
Flight Rules
VFR
Cloud Levels
  • Scattered at 4,000' AGL
  • Broken at 6,500' AGL
  • Broken at 10,000' AGL
Temperature
13°C / 55°F
Dewpoint
11°C / 52°F
Humidity
88%
Altimeter
29.78" Hg
Pressure
1008.42 hPa
Previous

2 hours ago

KCNO 222353Z 00000KT 10SM SCT015 BKN065 BKN100 12/11 A2979 RMK AO2 RAE49 SLP085 P0006 60052 T01170111 10200 20100 51021
Observed
May-22 @ 23:53 UTC
Visibility
10 SM
Flight Rules
VFR
Cloud Levels
  • Scattered at 1,500' AGL
  • Broken at 6,500' AGL
  • Broken at 10,000' AGL
Temperature
12°C / 54°F
Dewpoint
11°C / 52°F
Humidity
94%
Altimeter
29.79" Hg
Pressure
1008.82 hPa
Current Rain
0.06"
Previous

3 hours ago

KCNO 222253Z 06005KT 3SM -RA BR BKN049 OVC060 11/09 A2978 RMK AO2 LTG DSNT SW TSE25B27E46 SLP084 P0026 T01060094
Observed
May-22 @ 22:53 UTC
Wind
  • 060° at 5 KTS
Visibility
3 SM
Flight Rules
MVFR
Conditions
Light Rain, Mist
Cloud Levels
  • Broken at 4,900' AGL
  • Overcast at 6,000' AGL
Temperature
11°C / 52°F
Dewpoint
C / 48°F
Humidity
88%
Altimeter
29.78" Hg
Pressure
1008.42 hPa
Current Rain
0.26"